createdAt,value
2023-05-02T00:00:47.992Z,100908.69
2023-05-02T00:03:14.670Z,100910.34
2023-05-02T00:05:41.390Z,100902.84
2023-05-02T00:08:07.850Z,100914.25
2023-05-02T00:10:34.476Z,100910.34
2023-05-02T00:13:00.912Z,100914.25
2023-05-02T00:15:30.145Z,100911.47
2023-05-02T00:17:56.717Z,100908.69
2023-05-02T00:20:23.284Z,100907.03
2023-05-02T00:22:49.749Z,100918.16
2023-05-02T00:25:17.273Z,100915.38
2023-05-02T00:27:44.205Z,100911.78
2023-05-02T00:30:10.778Z,100910.97
2023-05-02T00:32:37.274Z,100916.53
2023-05-02T00:35:03.820Z,100913.75
2023-05-02T00:37:30.256Z,100912.59
2023-05-02T00:39:56.808Z,100915.69
2023-05-02T00:42:23.359Z,100931.56
2023-05-02T00:44:49.886Z,100924.34
2023-05-02T00:47:16.365Z,100934.34
2023-05-02T00:49:42.805Z,100934.34
2023-05-02T00:52:09.413Z,100935.47
2023-05-02T00:54:37.241Z,100931.56
2023-05-02T00:57:03.674Z,100930.72
2023-05-02T00:59:30.112Z,100940.19
2023-05-02T01:02:05.037Z,100939.38
2023-05-02T01:04:49.986Z,100939.38
2023-05-02T01:07:32.044Z,100939.38
2023-05-02T01:10:06.100Z,100939.38
2023-05-02T01:12:51.165Z,100943.28
2023-05-02T01:15:20.621Z,100952.78
2023-05-02T01:17:47.880Z,100959.97
2023-05-02T01:20:16.469Z,100959.97
2023-05-02T01:22:43.641Z,100958.34
2023-05-02T01:25:19.993Z,100967.81
2023-05-02T01:27:51.486Z,100968.66
2023-05-02T01:30:19.007Z,100974.19
2023-05-02T01:32:46.419Z,100967.00
2023-05-02T01:35:15.076Z,100975.03
2023-05-02T01:37:43.191Z,100990.03
2023-05-02T01:40:10.454Z,100984.50
2023-05-02T01:42:38.071Z,100983.69
2023-05-02T01:45:05.598Z,100991.22
2023-05-02T01:47:33.525Z,100990.03
2023-05-02T01:50:00.533Z,100994.00
2023-05-02T01:52:27.536Z,100994.00
2023-05-02T01:54:55.636Z,100997.56
2023-05-02T01:57:22.260Z,100994.00
2023-05-02T01:59:49.788Z,100999.56
2023-05-02T02:02:17.031Z,100998.69
2023-05-02T02:04:44.133Z,101007.34
2023-05-02T02:07:12.427Z,101009.00
2023-05-02T02:09:39.085Z,101009.00
2023-05-02T02:12:12.674Z,101015.69
2023-05-02T02:14:40.314Z,101018.50
2023-05-02T02:17:12.477Z,101016.81
2023-05-02T02:19:39.940Z,101024.03
2023-05-02T02:22:07.936Z,101033.50
2023-05-02T02:24:36.617Z,101038.25
2023-05-02T02:27:03.338Z,101037.41
2023-05-02T02:29:29.818Z,101045.75
2023-05-02T02:31:56.242Z,101048.53
2023-05-02T02:34:22.676Z,101048.53
2023-05-02T02:36:55.410Z,101048.53
2023-05-02T02:39:39.816Z,101046.88
2023-05-02T02:42:12.439Z,101048.53
2023-05-02T02:44:51.119Z,101050.81
2023-05-02T02:47:27.443Z,101050.81
2023-05-02T02:50:09.939Z,101058.63
2023-05-02T02:53:02.665Z,101063.06
2023-05-02T02:55:47.792Z,101064.19
2023-05-02T02:58:14.242Z,101065.84
2023-05-02T03:00:40.967Z,101075.31
2023-05-02T03:03:07.852Z,101074.47
2023-05-02T03:05:34.341Z,101078.09
2023-05-02T03:08:01.126Z,101073.66
2023-05-02T03:10:27.774Z,101080.03
2023-05-02T03:12:55.762Z,101078.41
2023-05-02T03:15:43.948Z,101083.13
2023-05-02T03:18:10.607Z,101090.34
2023-05-02T03:20:37.087Z,101083.13
2023-05-02T03:23:03.883Z,101088.69
2023-05-02T03:25:30.602Z,101087.88
2023-05-02T03:27:57.775Z,101093.44
2023-05-02T03:30:24.511Z,101092.59
2023-05-02T03:32:58.733Z,101089.81
2023-05-02T03:35:28.502Z,101092.59
2023-05-02T03:37:55.245Z,101093.72
2023-05-02T03:40:27.484Z,101096.50
2023-05-02T03:42:56.338Z,101090.94
2023-05-02T03:45:22.939Z,101095.69
2023-05-02T03:47:49.785Z,101089.31
2023-05-02T03:50:16.475Z,101090.94
2023-05-02T03:52:47.373Z,101092.59
2023-05-02T03:55:14.211Z,101090.13
2023-05-02T03:57:40.905Z,101090.94
2023-05-02T04:00:15.705Z,101094.88
2023-05-02T04:02:45.721Z,101095.31
2023-05-02T04:05:12.478Z,101097.66
2023-05-02T04:07:39.161Z,101092.19
2023-05-02T04:10:06.224Z,101095.41
2023-05-02T04:12:32.827Z,101105.53
2023-05-02T04:14:59.377Z,101109.72
2023-05-02T04:17:26.148Z,101103.13
2023-05-02T04:19:52.770Z,101108.72
2023-05-02T04:22:20.639Z,101105.16
2023-05-02T04:24:47.243Z,101104.59
2023-05-02T04:27:19.202Z,101108.22
2023-05-02T04:29:50.439Z,101114.06
2023-05-02T04:32:20.866Z,101128.47
2023-05-02T04:34:47.618Z,101130.69
2023-05-02T04:37:14.203Z,101130.16
2023-05-02T04:39:42.107Z,101137.34
2023-05-02T04:42:08.788Z,101134.03
2023-05-02T04:44:46.285Z,101135.31
2023-05-02T04:47:14.424Z,101137.09
2023-05-02T04:49:44.827Z,101145.72
2023-05-02T04:52:28.309Z,101151.63
2023-05-02T04:54:59.447Z,101156.50
2023-05-02T04:57:27.622Z,101154.72
2023-05-02T04:59:59.583Z,101159.34
2023-05-02T05:02:28.167Z,101165.38
2023-05-02T05:04:55.096Z,101160.63
2023-05-02T05:07:22.613Z,101165.00
2023-05-02T05:09:50.571Z,101173.56
2023-05-02T05:12:26.278Z,101173.22
2023-05-02T05:14:53.132Z,101175.94
2023-05-02T05:17:20.724Z,101187.28
2023-05-02T05:19:47.225Z,101187.50
2023-05-02T05:22:18.428Z,101184.69
2023-05-02T05:24:51.076Z,101194.41
2023-05-02T05:27:18.905Z,101191.31
2023-05-02T05:29:45.845Z,101190.72
2023-05-02T05:32:12.527Z,101192.91
2023-05-02T05:34:39.262Z,101194.28
2023-05-02T05:37:06.057Z,101203.97
2023-05-02T05:39:32.799Z,101204.50
2023-05-02T05:42:01.626Z,101197.25
2023-05-02T05:44:28.516Z,101211.69
2023-05-02T05:46:55.270Z,101210.25
2023-05-02T05:49:22.357Z,101212.75
2023-05-02T05:51:51.152Z,101217.72
2023-05-02T05:54:18.406Z,101227.41
2023-05-02T05:56:47.195Z,101232.66
2023-05-02T05:59:14.000Z,101233.22
2023-05-02T06:01:46.351Z,101240.44
2023-05-02T06:04:14.147Z,101236.53
2023-05-02T06:06:41.270Z,101243.72
2023-05-02T06:09:10.242Z,101244.25
2023-05-02T06:11:38.526Z,101248.69
2023-05-02T06:14:05.213Z,101259.25
2023-05-02T06:16:33.062Z,101256.97
2023-05-02T06:19:02.987Z,101251.41
2023-05-02T06:21:31.934Z,101256.66
2023-05-02T06:23:58.587Z,101261.94
2023-05-02T06:26:27.769Z,101265.25
2023-05-02T06:28:57.647Z,101266.91
2023-05-02T06:31:24.602Z,101269.41
2023-05-02T06:33:52.922Z,101267.97
2023-05-02T06:36:19.675Z,101272.41
2023-05-02T06:38:46.420Z,101278.50
2023-05-02T06:41:13.967Z,101285.72
2023-05-02T06:43:41.973Z,101286.25
2023-05-02T06:46:11.570Z,101294.59
2023-05-02T06:48:38.428Z,101297.06
2023-05-02T06:51:05.022Z,101305.09
2023-05-02T06:53:41.829Z,101297.31
2023-05-02T06:56:08.680Z,101304.53
2023-05-02T06:58:38.342Z,101311.75
2023-05-02T07:01:13.562Z,101306.19
2023-05-02T07:03:40.768Z,101317.00
2023-05-02T07:06:08.929Z,101321.44
2023-05-02T07:08:35.917Z,101324.22
2023-05-02T07:11:16.260Z,101329.50
2023-05-02T07:13:43.572Z,101334.22
2023-05-02T07:16:13.390Z,101323.94
2023-05-02T07:18:39.973Z,101333.94
2023-05-02T07:21:08.993Z,101338.38
2023-05-02T07:23:37.144Z,101344.44
2023-05-02T07:26:06.209Z,101347.22
2023-05-02T07:28:34.538Z,101343.31
2023-05-02T07:31:01.174Z,101351.66
2023-05-02T07:33:30.930Z,101355.28
2023-05-02T07:36:01.803Z,101350.56
2023-05-02T07:38:44.810Z,101355.53
2023-05-02T07:41:15.004Z,101357.16
2023-05-02T07:43:43.150Z,101355.53
2023-05-02T07:46:12.514Z,101366.66
2023-05-02T07:48:48.197Z,101368.59
2023-05-02T07:51:16.709Z,101361.91
2023-05-02T07:53:43.371Z,101368.28
2023-05-02T07:56:09.978Z,101362.72
2023-05-02T07:58:47.206Z,101368.28
2023-05-02T08:01:15.908Z,101375.50
2023-05-02T08:03:50.517Z,101374.69
2023-05-02T08:06:20.515Z,101375.50
2023-05-02T08:08:53.883Z,101386.63
2023-05-02T08:11:23.898Z,101385.53
2023-05-02T08:13:52.493Z,101382.75
2023-05-02T08:16:24.482Z,101382.75
2023-05-02T08:18:53.992Z,101394.41
2023-05-02T08:21:25.906Z,101394.41
2023-05-02T08:23:58.024Z,101397.19
2023-05-02T08:26:36.804Z,101397.19
2023-05-02T08:29:05.087Z,101404.41
2023-05-02T08:31:39.465Z,101409.97
2023-05-02T08:34:06.349Z,101411.63
2023-05-02T08:36:38.684Z,101417.19
2023-05-02T08:39:09.707Z,101414.41
2023-05-02T08:41:38.080Z,101415.53
2023-05-02T08:44:08.199Z,101422.75
2023-05-02T08:46:41.037Z,101422.75
2023-05-02T08:49:08.580Z,101428.84
2023-05-02T08:51:37.086Z,101423.28
2023-05-02T08:54:10.768Z,101421.34
2023-05-02T08:56:38.609Z,101427.72
2023-05-02T08:59:06.532Z,101431.34
2023-05-02T09:01:38.334Z,101423.00
2023-05-02T09:04:05.136Z,101428.25
2023-05-02T09:06:33.337Z,101433.81
2023-05-02T09:09:00.949Z,101440.75
2023-05-02T09:11:29.670Z,101440.75
2023-05-02T09:14:04.135Z,101451.03
2023-05-02T09:16:38.660Z,101447.13
2023-05-02T09:19:05.471Z,101461.59
2023-05-02T09:21:40.395Z,101456.03
2023-05-02T09:24:18.736Z,101451.00
2023-05-02T09:27:08.312Z,101455.44
2023-05-02T09:29:39.225Z,101457.06
2023-05-02T09:32:06.679Z,101456.00
2023-05-02T09:34:33.981Z,101458.78
2023-05-02T09:37:02.298Z,101456.00
2023-05-02T09:39:32.129Z,101457.94
2023-05-02T09:42:03.112Z,101465.19
2023-05-02T09:44:40.241Z,101474.66
2023-05-02T09:47:10.095Z,101463.53
2023-05-02T09:49:49.697Z,101469.91
2023-05-02T09:52:22.648Z,101484.91
2023-05-02T09:54:52.480Z,101486.59
2023-05-02T09:57:19.383Z,101482.69
2023-05-02T10:00:22.935Z,101488.25
2023-05-02T10:02:51.662Z,101501.06
2023-05-02T10:05:20.280Z,101503.84
2023-05-02T10:07:50.088Z,101508.28
2023-05-02T10:10:17.749Z,101506.31
2023-05-02T10:12:45.626Z,101515.78
2023-05-02T10:15:23.499Z,101516.63
2023-05-02T10:18:18.447Z,101519.41
2023-05-02T10:20:53.644Z,101519.91
2023-05-02T10:23:20.521Z,101521.59
2023-05-02T10:25:47.149Z,101520.47
2023-05-02T10:28:14.665Z,101516.56
2023-05-02T10:30:41.619Z,101518.22
2023-05-02T10:33:30.502Z,101515.16
2023-05-02T10:35:57.302Z,101521.56
2023-05-02T10:38:24.940Z,101527.13
2023-05-02T10:41:15.218Z,101527.94
2023-05-02T10:44:02.684Z,101530.41
2023-05-02T10:46:44.552Z,101524.03
2023-05-02T10:49:28.438Z,101530.41
2023-05-02T10:51:56.130Z,101532.94
2023-05-02T10:54:50.216Z,101530.97
2023-05-02T10:57:28.146Z,101527.06
2023-05-02T11:00:35.336Z,101525.09
2023-05-02T11:03:12.781Z,101525.09
2023-05-02T11:05:59.434Z,101527.06
2023-05-02T11:08:33.442Z,101524.28
2023-05-02T11:11:41.432Z,101528.19
2023-05-02T11:14:35.883Z,101528.19
2023-05-02T11:17:05.239Z,101529.84
2023-05-02T11:20:03.705Z,101528.72
2023-05-02T11:22:42.214Z,101527.56
2023-05-02T11:25:34.553Z,101526.75
2023-05-02T11:28:16.304Z,101537.06
2023-05-02T11:30:47.697Z,101531.50
2023-05-02T11:34:05.892Z,101528.72
2023-05-02T11:37:16.463Z,101531.50
2023-05-02T11:40:26.399Z,101544.28
2023-05-02T11:42:58.129Z,101540.91
2023-05-02T11:45:53.623Z,101545.59
2023-05-02T11:48:27.473Z,101545.31
2023-05-02T11:51:09.847Z,101549.75
2023-05-02T11:53:45.817Z,101554.72
2023-05-02T11:59:28.691Z,101552.16
2023-05-02T12:02:36.720Z,101558.28
2023-05-02T12:05:21.940Z,101554.13
2023-05-02T12:07:51.834Z,101558.03
2023-05-02T12:10:21.106Z,101561.94
2023-05-02T12:12:51.427Z,101566.69
2023-05-02T12:15:26.049Z,101565.84
2023-05-02T12:17:57.971Z,101571.41
2023-05-02T12:20:24.866Z,101563.38
2023-05-02T12:22:52.922Z,101575.34
2023-05-02T12:25:24.304Z,101582.53
2023-05-02T12:28:05.566Z,101577.81
2023-05-02T12:30:33.870Z,101578.63
2023-05-02T12:33:05.657Z,101575.59
2023-05-02T12:35:36.451Z,101580.84
2023-05-02T12:38:13.317Z,101583.63
2023-05-02T12:40:49.439Z,101590.88
2023-05-02T12:43:16.324Z,101590.88
2023-05-02T12:45:44.655Z,101590.88
2023-05-02T12:48:22.361Z,101581.41
2023-05-02T12:50:49.359Z,101587.78
2023-05-02T12:53:17.594Z,101582.50
2023-05-02T12:55:46.726Z,101598.63
2023-05-02T12:58:18.994Z,101592.22
2023-05-02T13:00:48.466Z,101588.59
2023-05-02T13:03:17.879Z,101599.72
2023-05-02T13:05:47.168Z,101595.31
2023-05-02T13:08:13.868Z,101595.59
2023-05-02T13:10:45.069Z,101603.41
2023-05-02T13:13:17.812Z,101594.16
2023-05-02T13:15:47.801Z,101590.25
2023-05-02T13:18:14.643Z,101588.03
2023-05-02T13:20:41.483Z,101586.91
2023-05-02T13:23:35.876Z,101601.34
2023-05-02T13:26:00.362Z,101596.91
2023-05-02T13:28:29.503Z,101592.22
2023-05-02T13:30:56.889Z,101592.53
2023-05-02T13:37:16.654Z,101596.44
2023-05-02T13:39:43.521Z,101595.06
2023-05-02T13:42:13.690Z,101599.25
2023-05-02T13:44:52.560Z,101601.50
2023-05-02T13:47:19.238Z,101607.59
2023-05-02T13:49:54.625Z,101597.63
2023-05-02T13:52:38.075Z,101604.81
2023-05-02T13:55:12.188Z,101607.91
2023-05-02T13:57:45.494Z,101607.09
2023-05-02T14:00:15.169Z,101603.75
2023-05-02T14:02:44.792Z,101604.88
2023-05-02T14:05:18.767Z,101602.09
2023-05-02T14:07:51.160Z,101607.91
2023-05-02T14:10:28.316Z,101609.31
2023-05-02T14:13:56.853Z,101619.63
2023-05-02T14:32:29.691Z,101619.47
2023-05-02T14:34:56.280Z,101610.13
2023-05-02T14:37:22.700Z,101616.25
2023-05-02T14:39:54.893Z,101617.63
2023-05-02T14:42:24.572Z,101614.06
2023-05-02T14:47:31.284Z,101613.53
2023-05-02T14:49:57.788Z,101604.59
2023-05-02T14:52:24.281Z,101606.25
2023-05-02T14:54:50.780Z,101600.69
2023-05-02T14:57:17.223Z,101608.25
2023-05-02T14:59:43.705Z,101595.75
2023-05-02T15:02:10.271Z,101604.03
2023-05-02T15:04:36.996Z,101606.81
2023-05-02T15:07:04.275Z,101600.19
2023-05-02T15:09:30.850Z,101602.41
2023-05-02T15:11:57.447Z,101599.03
2023-05-02T15:14:27.271Z,101600.69
2023-05-02T15:16:53.732Z,101599.56
2023-05-02T15:19:22.672Z,101601.75
2023-05-02T15:21:50.042Z,101609.50
2023-05-02T15:24:16.599Z,101608.94
2023-05-02T15:26:43.046Z,101607.22
2023-05-02T15:29:09.614Z,101608.88
2023-05-02T15:31:36.450Z,101609.94
2023-05-02T15:34:03.293Z,101607.66
2023-05-02T15:36:30.421Z,101615.94
2023-05-02T15:38:57.270Z,101613.72
2023-05-02T15:41:24.948Z,101615.91
2023-05-02T15:43:51.371Z,101613.72
2023-05-02T15:46:17.884Z,101616.44
2023-05-02T15:48:44.412Z,101620.88
2023-05-02T15:51:11.288Z,101613.63
2023-05-02T15:53:39.727Z,101614.97
2023-05-02T15:56:09.589Z,101624.75
2023-05-02T15:58:36.305Z,101613.38
2023-05-02T16:01:02.796Z,101622.00
2023-05-02T16:03:29.568Z,101618.94
2023-05-02T16:05:58.061Z,101623.66
2023-05-02T16:08:24.552Z,101620.00
2023-05-02T16:10:51.046Z,101619.75
2023-05-02T16:13:17.730Z,101631.44
2023-05-02T16:15:44.308Z,101634.22
2023-05-02T16:18:10.810Z,101630.84
2023-05-02T16:20:37.297Z,101617.47
2023-05-02T16:23:04.204Z,101625.00
2023-05-02T16:25:30.744Z,101619.66
2023-05-02T16:27:57.160Z,101634.09
2023-05-02T16:30:23.663Z,101621.84
2023-05-02T16:32:50.252Z,101620.72
2023-05-02T16:35:16.786Z,101624.06
2023-05-02T16:37:43.207Z,101633.47
2023-05-02T16:40:10.265Z,101624.56
2023-05-02T16:42:37.086Z,101630.69
2023-05-02T16:45:03.668Z,101628.44
2023-05-02T16:47:30.420Z,101637.06
2023-05-02T16:49:57.880Z,101631.25
2023-05-02T16:52:24.761Z,101637.44
2023-05-02T16:54:51.287Z,101637.97
2023-05-02T16:57:21.366Z,101628.47
2023-05-02T16:59:49.339Z,101643.81
2023-05-02T17:02:16.229Z,101637.19
2023-05-02T17:04:43.323Z,101653.09
2023-05-02T17:07:12.265Z,101644.19
2023-05-02T17:09:39.060Z,101643.34
2023-05-02T17:12:10.470Z,101647.28
2023-05-02T17:14:37.468Z,101646.13
2023-05-02T17:17:03.983Z,101640.28
2023-05-02T17:19:31.419Z,101643.66
2023-05-02T17:21:58.538Z,101650.34
2023-05-02T17:24:25.192Z,101638.13
2023-05-02T17:26:52.367Z,101637.31
2023-05-02T17:29:18.858Z,101636.47
2023-05-02T17:31:45.296Z,101637.06
2023-05-02T17:34:11.878Z,101635.97
2023-05-02T17:36:41.897Z,101643.75
2023-05-02T17:39:08.777Z,101635.41
2023-05-02T17:41:36.296Z,101643.22
2023-05-02T17:44:03.182Z,101643.22
2023-05-02T17:46:31.101Z,101639.63
2023-05-02T17:48:57.869Z,101647.13
2023-05-02T17:51:24.296Z,101643.78
2023-05-02T17:53:51.626Z,101643.78
2023-05-02T17:56:19.038Z,101642.16
2023-05-02T17:58:45.540Z,101646.06
2023-05-02T18:01:13.910Z,101648.84
2023-05-02T18:03:40.769Z,101650.78
2023-05-02T18:06:07.539Z,101658.31
2023-05-02T18:08:34.129Z,101651.06
2023-05-02T18:11:00.768Z,101657.75
2023-05-02T18:13:27.253Z,101662.22
2023-05-02T18:15:57.220Z,101657.75
2023-05-02T18:18:23.851Z,101661.66
2023-05-02T18:20:50.479Z,101660.84
2023-05-02T18:23:17.134Z,101660.03
2023-05-02T18:25:44.128Z,101665.59
2023-05-02T18:28:10.575Z,101665.59
2023-05-02T18:30:40.190Z,101658.38
2023-05-02T18:33:08.229Z,101659.47
2023-05-02T18:35:34.806Z,101665.34
2023-05-02T18:38:01.668Z,101663.38
2023-05-02T18:40:28.105Z,101658.94
2023-05-02T18:42:54.544Z,101658.13
2023-05-02T18:45:21.248Z,101657.25
2023-05-02T18:47:47.762Z,101663.94
2023-05-02T18:50:14.227Z,101656.44
2023-05-02T18:52:40.706Z,101657.00
2023-05-02T18:55:07.466Z,101660.94
2023-05-02T18:57:34.097Z,101660.94
2023-05-02T19:00:00.945Z,101666.50
2023-05-02T19:02:27.633Z,101672.91
2023-05-02T19:04:54.151Z,101671.22
2023-05-02T19:07:20.841Z,101675.69
2023-05-02T19:09:47.324Z,101672.91
2023-05-02T19:12:13.767Z,101673.72
2023-05-02T19:14:40.365Z,101676.81
2023-05-02T19:17:06.814Z,101690.72
2023-05-02T19:19:33.279Z,101688.78
2023-05-02T19:21:59.700Z,101698.25
2023-05-02T19:24:26.462Z,101697.41
2023-05-02T19:26:53.375Z,101701.31
2023-05-02T19:29:19.800Z,101699.66
2023-05-02T19:31:46.516Z,101699.66
2023-05-02T19:34:13.091Z,101706.03
2023-05-02T19:36:39.584Z,101704.38
2023-05-02T19:39:06.409Z,101711.91
2023-05-02T19:41:32.853Z,101713.56
2023-05-02T19:44:00.106Z,101717.47
2023-05-02T19:46:27.097Z,101718.59
2023-05-02T19:48:53.624Z,101720.25
2023-05-02T19:51:25.402Z,101721.38
2023-05-02T19:53:53.199Z,101715.25
2023-05-02T19:56:20.158Z,101725.28
2023-05-02T19:58:46.755Z,101720.81
2023-05-02T20:01:13.253Z,101719.72
2023-05-02T20:03:39.846Z,101726.38
2023-05-02T20:06:06.362Z,101720.81
2023-05-02T20:08:32.817Z,101724.72
2023-05-02T20:10:59.247Z,101733.06
2023-05-02T20:13:25.706Z,101739.75
2023-05-02T20:15:52.701Z,101749.25
2023-05-02T20:18:19.464Z,101748.09
2023-05-02T20:20:46.078Z,101753.66
2023-05-02T20:23:12.980Z,101757.59
2023-05-02T20:25:40.576Z,101760.38
2023-05-02T20:28:09.120Z,101760.38
2023-05-02T20:30:35.880Z,101753.97
2023-05-02T20:33:14.134Z,101768.16
2023-05-02T20:35:42.283Z,101773.75
2023-05-02T20:38:08.769Z,101766.50
2023-05-02T20:40:37.854Z,101772.06
2023-05-02T20:43:05.566Z,101776.81
2023-05-02T20:45:31.989Z,101774.03
2023-05-02T20:47:58.603Z,101774.84
2023-05-02T20:50:25.194Z,101777.63
2023-05-02T20:52:51.655Z,101783.19
2023-05-02T20:55:18.797Z,101771.47
2023-05-02T20:57:45.817Z,101777.94
2023-05-02T21:00:13.751Z,101785.41
2023-05-02T21:02:40.196Z,101786.28
2023-05-02T21:05:07.227Z,101779.84
2023-05-02T21:07:33.657Z,101783.75
2023-05-02T21:10:00.564Z,101783.75
2023-05-02T21:12:27.512Z,101779.00
2023-05-02T21:14:53.950Z,101787.66
2023-05-02T21:17:21.747Z,101790.69
2023-05-02T21:19:48.248Z,101792.38
2023-05-02T21:22:14.671Z,101790.44
2023-05-02T21:24:41.148Z,101787.66
2023-05-02T21:27:07.633Z,101791.56
2023-05-02T21:29:34.112Z,101786.81
2023-05-02T21:32:00.570Z,101780.41
2023-05-02T21:34:27.026Z,101787.66
2023-05-02T21:36:53.464Z,101785.13
2023-05-02T21:39:20.907Z,101793.78
2023-05-02T21:41:47.353Z,101792.97
2023-05-02T21:44:14.435Z,101793.78
2023-05-02T21:46:41.156Z,101801.84
2023-05-02T21:49:08.176Z,101793.78
2023-05-02T21:51:34.667Z,101793.78
2023-05-02T21:54:01.130Z,101799.34
2023-05-02T21:56:27.580Z,101800.19
2023-05-02T21:58:54.009Z,101802.13
2023-05-02T22:01:20.819Z,101797.69
2023-05-02T22:03:47.409Z,101799.34
2023-05-02T22:06:14.001Z,101797.69
2023-05-02T22:08:40.507Z,101805.19
2023-05-02T22:11:09.226Z,101801.56
2023-05-02T22:13:36.448Z,101807.13
2023-05-02T22:16:03.410Z,101803.25
2023-05-02T22:18:29.871Z,101807.13
2023-05-02T22:20:58.668Z,101803.53
2023-05-02T22:23:25.155Z,101805.50
2023-05-02T22:25:51.607Z,101803.84
2023-05-02T22:28:18.028Z,101809.41
2023-05-02T22:30:44.461Z,101812.19
2023-05-02T22:33:11.015Z,101805.50
2023-05-02T22:35:37.897Z,101813.28
2023-05-02T22:38:04.764Z,101814.41
2023-05-02T22:40:31.623Z,101818.84
2023-05-02T22:42:58.475Z,101829.97
2023-05-02T22:45:25.006Z,101823.59
2023-05-02T22:47:52.318Z,101821.63
2023-05-02T22:50:19.925Z,101818.03
2023-05-02T22:52:47.027Z,101826.09
2023-05-02T22:55:13.458Z,101829.97
2023-05-02T22:57:40.517Z,101826.09
2023-05-02T23:00:09.368Z,101824.41
2023-05-02T23:02:36.141Z,101824.41
2023-05-02T23:05:03.449Z,101818.84
2023-05-02T23:07:29.886Z,101811.63
2023-05-02T23:09:56.316Z,101811.63
2023-05-02T23:12:22.886Z,101813.28
2023-05-02T23:14:49.389Z,101806.91
2023-05-02T23:17:15.877Z,101812.47
2023-05-02T23:19:42.605Z,101808.03
2023-05-02T23:22:09.066Z,101806.06
2023-05-02T23:24:35.691Z,101803.28
2023-05-02T23:27:02.144Z,101806.06
2023-05-02T23:29:28.762Z,101804.94
2023-05-02T23:31:55.662Z,101795.78
2023-05-02T23:34:22.327Z,101798.81
2023-05-02T23:36:48.919Z,101793.25
2023-05-02T23:39:15.494Z,101791.59
2023-05-02T23:41:41.952Z,101799.94
2023-05-02T23:44:08.405Z,101803.56
2023-05-02T23:46:34.949Z,101808.28
2023-05-02T23:49:01.443Z,101803.88
2023-05-02T23:51:28.530Z,101801.09
2023-05-02T23:53:55.026Z,101802.72
2023-05-02T23:56:21.644Z,101808.28
2023-05-02T23:58:48.148Z,101806.66
